createdAt,value
2023-01-23T00:06:55.831Z,1.99
2023-01-23T00:26:55.791Z,2.02
2023-01-23T01:06:55.770Z,1.97
2023-01-23T01:26:55.754Z,1.92
2023-01-23T01:46:55.835Z,1.91
2023-01-23T02:06:55.733Z,1.9
2023-01-23T02:26:55.696Z,1.9
2023-01-23T02:46:55.693Z,1.88
2023-01-23T03:26:55.660Z,1.83
2023-01-23T03:46:55.645Z,1.86
2023-01-23T04:06:55.633Z,2
2023-01-23T04:26:55.595Z,2.02
2023-01-23T04:46:55.595Z,2.02
2023-01-23T05:06:55.561Z,2.12
2023-01-23T05:26:55.566Z,2.12
2023-01-23T05:46:55.540Z,2.14
2023-01-23T06:26:55.502Z,2.15
2023-01-23T06:46:55.491Z,2.14
2023-01-23T07:26:55.467Z,2.14
2023-01-23T07:46:55.550Z,2.17
2023-01-23T08:46:55.388Z,2.46
2023-01-23T09:06:55.359Z,2.69
2023-01-23T09:26:55.352Z,2.71
2023-01-23T09:46:55.366Z,2.98
2023-01-23T10:26:55.317Z,3.34
2023-01-23T10:46:55.278Z,3.57
2023-01-23T11:46:55.224Z,4.11
2023-01-23T12:06:55.206Z,4.09
2023-01-23T12:26:55.188Z,3.95
2023-01-23T13:06:55.157Z,4
2023-01-23T13:26:55.147Z,3.9
2023-01-23T14:26:55.061Z,3.66
2023-01-23T14:46:55.054Z,3.65
2023-01-23T15:06:55.049Z,3.6
2023-01-23T15:26:55.000Z,3.53
2023-01-23T15:46:54.988Z,3.42
2023-01-23T16:06:54.982Z,3.38
2023-01-23T16:26:54.977Z,3.3
2023-01-23T16:46:55.076Z,3.26
2023-01-23T17:06:54.918Z,3.22
2023-01-23T17:26:54.912Z,3.16
2023-01-23T18:06:54.875Z,3.13
2023-01-23T18:26:54.865Z,3.16
2023-01-23T18:46:54.831Z,3.18
2023-01-23T19:06:54.825Z,3.21
2023-01-23T19:46:54.802Z,3.31
2023-01-23T20:06:54.776Z,3.23
2023-01-23T20:26:54.742Z,3.08
2023-01-23T21:06:54.701Z,2.98
2023-01-23T21:26:54.694Z,3.07
2023-01-23T21:46:54.691Z,3.07
2023-01-23T22:06:55.343Z,2.96
2023-01-23T22:26:54.639Z,2.9
2023-01-23T22:46:54.663Z,2.9
2023-01-23T23:06:54.612Z,2.89
2023-01-23T23:46:54.581Z,2.77
